sensor_id;sensor_type;location;lat;lon;timestamp;P1;durP1;ratioP1;P2;durP2;ratioP2
45762;SDS011;37512;52.408;13.356;2024-03-29T00:01:02;0.90;;;0.63;;
45762;SDS011;37512;52.408;13.356;2024-03-29T00:05:02;2.05;;;0.60;;
45762;SDS011;37512;52.408;13.356;2024-03-29T00:09:03;3.05;;;0.82;;
45762;SDS011;37512;52.408;13.356;2024-03-29T00:13:04;1.13;;;0.68;;
45762;SDS011;37512;52.408;13.356;2024-03-29T00:17:05;1.40;;;0.70;;
45762;SDS011;37512;52.408;13.356;2024-03-29T00:21:05;5.60;;;1.23;;
45762;SDS011;37512;52.408;13.356;2024-03-29T00:25:06;4.32;;;0.68;;
45762;SDS011;37512;52.408;13.356;2024-03-29T00:29:07;6.93;;;1.08;;
45762;SDS011;37512;52.408;13.356;2024-03-29T00:33:08;4.03;;;0.75;;
45762;SDS011;37512;52.408;13.356;2024-03-29T00:37:08;4.18;;;1.13;;
45762;SDS011;37512;52.408;13.356;2024-03-29T00:41:09;1.95;;;1.02;;
45762;SDS011;37512;52.408;13.356;2024-03-29T00:45:09;2.63;;;0.80;;
45762;SDS011;37512;52.408;13.356;2024-03-29T00:49:10;3.22;;;1.00;;
45762;SDS011;37512;52.408;13.356;2024-03-29T00:53:11;2.15;;;1.05;;
45762;SDS011;37512;52.408;13.356;2024-03-29T00:57:11;1.45;;;0.90;;
45762;SDS011;37512;52.408;13.356;2024-03-29T01:01:14;2.53;;;0.80;;
45762;SDS011;37512;52.408;13.356;2024-03-29T01:05:15;4.18;;;0.90;;
45762;SDS011;37512;52.408;13.356;2024-03-29T01:09:16;2.05;;;0.77;;
45762;SDS011;37512;52.408;13.356;2024-03-29T01:13:16;1.88;;;0.80;;
45762;SDS011;37512;52.408;13.356;2024-03-29T01:17:17;1.35;;;0.80;;
45762;SDS011;37512;52.408;13.356;2024-03-29T01:21:19;2.83;;;0.88;;
45762;SDS011;37512;52.408;13.356;2024-03-29T01:25:20;1.90;;;1.10;;
45762;SDS011;37512;52.408;13.356;2024-03-29T01:29:21;1.45;;;1.00;;
45762;SDS011;37512;52.408;13.356;2024-03-29T01:33:22;2.05;;;1.00;;
45762;SDS011;37512;52.408;13.356;2024-03-29T01:37:22;3.05;;;1.35;;
45762;SDS011;37512;52.408;13.356;2024-03-29T01:41:23;2.08;;;1.00;;
45762;SDS011;37512;52.408;13.356;2024-03-29T01:45:26;4.82;;;1.10;;
45762;SDS011;37512;52.408;13.356;2024-03-29T01:49:27;2.05;;;1.23;;
45762;SDS011;37512;52.408;13.356;2024-03-29T01:53:29;2.35;;;1.23;;
45762;SDS011;37512;52.408;13.356;2024-03-29T01:57:31;4.90;;;1.15;;
45762;SDS011;37512;52.408;13.356;2024-03-29T02:01:31;1.65;;;1.20;;
45762;SDS011;37512;52.408;13.356;2024-03-29T02:05:33;2.28;;;1.20;;
45762;SDS011;37512;52.408;13.356;2024-03-29T02:09:33;2.45;;;1.30;;
45762;SDS011;37512;52.408;13.356;2024-03-29T02:13:34;4.75;;;1.40;;
45762;SDS011;37512;52.408;13.356;2024-03-29T02:17:35;3.15;;;1.40;;
45762;SDS011;37512;52.408;13.356;2024-03-29T02:21:36;2.50;;;1.45;;
45762;SDS011;37512;52.408;13.356;2024-03-29T02:25:41;2.65;;;1.65;;
45762;SDS011;37512;52.408;13.356;2024-03-29T02:29:42;2.42;;;1.60;;
45762;SDS011;37512;52.408;13.356;2024-03-29T02:33:43;3.80;;;1.98;;
45762;SDS011;37512;52.408;13.356;2024-03-29T02:37:43;4.82;;;1.70;;
45762;SDS011;37512;52.408;13.356;2024-03-29T02:41:44;4.88;;;1.63;;
45762;SDS011;37512;52.408;13.356;2024-03-29T02:45:44;3.30;;;1.50;;
45762;SDS011;37512;52.408;13.356;2024-03-29T02:49:45;3.30;;;1.52;;
45762;SDS011;37512;52.408;13.356;2024-03-29T02:53:46;4.38;;;1.88;;
45762;SDS011;37512;52.408;13.356;2024-03-29T02:57:46;2.25;;;1.92;;
45762;SDS011;37512;52.408;13.356;2024-03-29T03:01:47;0.98;;;0.88;;
45762;SDS011;37512;52.408;13.356;2024-03-29T03:05:48;2.17;;;1.85;;
45762;SDS011;37512;52.408;13.356;2024-03-29T03:09:48;1.92;;;1.40;;
45762;SDS011;37512;52.408;13.356;2024-03-29T03:14:08;3.15;;;2.08;;
45762;SDS011;37512;52.408;13.356;2024-03-29T03:18:08;3.70;;;1.77;;
45762;SDS011;37512;52.408;13.356;2024-03-29T03:22:09;3.78;;;1.77;;
45762;SDS011;37512;52.408;13.356;2024-03-29T03:26:09;3.78;;;1.80;;
45762;SDS011;37512;52.408;13.356;2024-03-29T03:30:10;2.67;;;1.30;;
45762;SDS011;37512;52.408;13.356;2024-03-29T03:34:11;4.38;;;2.13;;
45762;SDS011;37512;52.408;13.356;2024-03-29T03:38:12;2.70;;;1.77;;
45762;SDS011;37512;52.408;13.356;2024-03-29T03:42:13;2.95;;;1.45;;
45762;SDS011;37512;52.408;13.356;2024-03-29T03:46:14;3.35;;;1.75;;
45762;SDS011;37512;52.408;13.356;2024-03-29T03:50:14;2.55;;;1.67;;
45762;SDS011;37512;52.408;13.356;2024-03-29T03:54:15;1.80;;;1.45;;
45762;SDS011;37512;52.408;13.356;2024-03-29T03:58:16;2.25;;;1.42;;
45762;SDS011;37512;52.408;13.356;2024-03-29T04:02:16;3.30;;;2.35;;
45762;SDS011;37512;52.408;13.356;2024-03-29T04:06:17;2.75;;;1.88;;
45762;SDS011;37512;52.408;13.356;2024-03-29T04:10:17;3.25;;;1.58;;
45762;SDS011;37512;52.408;13.356;2024-03-29T04:14:18;5.05;;;1.75;;
45762;SDS011;37512;52.408;13.356;2024-03-29T04:18:18;3.53;;;1.33;;
45762;SDS011;37512;52.408;13.356;2024-03-29T04:22:19;3.72;;;1.60;;
45762;SDS011;37512;52.408;13.356;2024-03-29T04:26:20;3.30;;;1.60;;
45762;SDS011;37512;52.408;13.356;2024-03-29T04:30:20;2.50;;;1.48;;
45762;SDS011;37512;52.408;13.356;2024-03-29T04:34:21;5.80;;;1.92;;
45762;SDS011;37512;52.408;13.356;2024-03-29T04:38:22;2.85;;;1.48;;
45762;SDS011;37512;52.408;13.356;2024-03-29T04:42:23;6.53;;;1.40;;
45762;SDS011;37512;52.408;13.356;2024-03-29T04:46:23;3.08;;;1.85;;
45762;SDS011;37512;52.408;13.356;2024-03-29T04:50:24;2.17;;;1.20;;
45762;SDS011;37512;52.408;13.356;2024-03-29T04:54:25;6.47;;;1.42;;
45762;SDS011;37512;52.408;13.356;2024-03-29T04:58:26;5.05;;;1.55;;
45762;SDS011;37512;52.408;13.356;2024-03-29T05:02:26;4.25;;;1.38;;
45762;SDS011;37512;52.408;13.356;2024-03-29T05:06:28;3.75;;;1.10;;
45762;SDS011;37512;52.408;13.356;2024-03-29T05:10:30;4.13;;;1.00;;
45762;SDS011;37512;52.408;13.356;2024-03-29T05:14:30;2.58;;;1.35;;
45762;SDS011;37512;52.408;13.356;2024-03-29T05:18:31;3.00;;;0.98;;
45762;SDS011;37512;52.408;13.356;2024-03-29T05:22:31;3.88;;;1.90;;
45762;SDS011;37512;52.408;13.356;2024-03-29T05:26:32;2.88;;;1.33;;
45762;SDS011;37512;52.408;13.356;2024-03-29T05:30:33;5.28;;;1.17;;
45762;SDS011;37512;52.408;13.356;2024-03-29T05:34:34;1.77;;;0.95;;
45762;SDS011;37512;52.408;13.356;2024-03-29T05:38:35;4.10;;;1.10;;
45762;SDS011;37512;52.408;13.356;2024-03-29T05:42:36;2.88;;;1.30;;
45762;SDS011;37512;52.408;13.356;2024-03-29T05:46:37;2.15;;;1.20;;
45762;SDS011;37512;52.408;13.356;2024-03-29T05:50:39;3.15;;;1.30;;
45762;SDS011;37512;52.408;13.356;2024-03-29T05:54:40;1.35;;;0.90;;
45762;SDS011;37512;52.408;13.356;2024-03-29T05:58:41;3.22;;;1.30;;
45762;SDS011;37512;52.408;13.356;2024-03-29T06:02:42;3.88;;;1.95;;
45762;SDS011;37512;52.408;13.356;2024-03-29T06:06:45;1.92;;;1.02;;
45762;SDS011;37512;52.408;13.356;2024-03-29T06:10:46;4.00;;;1.30;;
45762;SDS011;37512;52.408;13.356;2024-03-29T06:14:46;2.47;;;1.08;;
45762;SDS011;37512;52.408;13.356;2024-03-29T06:19:05;5.60;;;0.95;;
45762;SDS011;37512;52.408;13.356;2024-03-29T06:23:06;2.63;;;1.25;;
45762;SDS011;37512;52.408;13.356;2024-03-29T06:27:07;3.38;;;1.45;;
45762;SDS011;37512;52.408;13.356;2024-03-29T06:31:07;4.50;;;1.10;;
45762;SDS011;37512;52.408;13.356;2024-03-29T06:35:08;1.88;;;0.90;;
45762;SDS011;37512;52.408;13.356;2024-03-29T06:39:09;2.42;;;1.10;;
45762;SDS011;37512;52.408;13.356;2024-03-29T06:43:10;2.47;;;1.13;;
45762;SDS011;37512;52.408;13.356;2024-03-29T06:47:12;2.00;;;0.82;;
45762;SDS011;37512;52.408;13.356;2024-03-29T06:51:13;7.03;;;1.20;;
45762;SDS011;37512;52.408;13.356;2024-03-29T06:55:14;3.65;;;1.13;;
45762;SDS011;37512;52.408;13.356;2024-03-29T06:59:14;2.35;;;1.00;;
45762;SDS011;37512;52.408;13.356;2024-03-29T07:03:15;1.50;;;0.90;;
45762;SDS011;37512;52.408;13.356;2024-03-29T07:07:17;1.75;;;0.90;;
45762;SDS011;37512;52.408;13.356;2024-03-29T07:11:18;2.03;;;0.95;;
45762;SDS011;37512;52.408;13.356;2024-03-29T07:15:18;1.60;;;0.90;;
45762;SDS011;37512;52.408;13.356;2024-03-29T07:19:19;2.10;;;0.90;;
45762;SDS011;37512;52.408;13.356;2024-03-29T07:23:21;2.75;;;1.10;;
45762;SDS011;37512;52.408;13.356;2024-03-29T07:27:21;2.92;;;0.90;;
45762;SDS011;37512;52.408;13.356;2024-03-29T07:31:23;4.43;;;0.90;;
45762;SDS011;37512;52.408;13.356;2024-03-29T07:35:23;1.98;;;1.00;;
45762;SDS011;37512;52.408;13.356;2024-03-29T07:39:24;1.52;;;0.70;;
45762;SDS011;37512;52.408;13.356;2024-03-29T07:43:25;2.83;;;0.95;;
45762;SDS011;37512;52.408;13.356;2024-03-29T07:47:26;3.33;;;1.23;;
45762;SDS011;37512;52.408;13.356;2024-03-29T07:51:26;1.38;;;0.80;;
45762;SDS011;37512;52.408;13.356;2024-03-29T07:55:27;5.57;;;1.58;;
45762;SDS011;37512;52.408;13.356;2024-03-29T07:59:28;2.65;;;1.02;;
45762;SDS011;37512;52.408;13.356;2024-03-29T08:03:29;1.30;;;0.82;;
45762;SDS011;37512;52.408;13.356;2024-03-29T08:07:31;3.88;;;0.82;;
45762;SDS011;37512;52.408;13.356;2024-03-29T08:11:32;1.40;;;0.85;;
45762;SDS011;37512;52.408;13.356;2024-03-29T08:15:33;2.05;;;0.88;;
45762;SDS011;37512;52.408;13.356;2024-03-29T08:19:33;2.17;;;0.73;;
45762;SDS011;37512;52.408;13.356;2024-03-29T08:23:34;2.10;;;0.73;;
45762;SDS011;37512;52.408;13.356;2024-03-29T08:27:37;3.47;;;1.17;;
45762;SDS011;37512;52.408;13.356;2024-03-29T08:31:40;4.03;;;1.20;;
45762;SDS011;37512;52.408;13.356;2024-03-29T08:35:41;3.88;;;1.33;;
45762;SDS011;37512;52.408;13.356;2024-03-29T08:39:43;3.20;;;1.17;;
45762;SDS011;37512;52.408;13.356;2024-03-29T08:43:44;2.70;;;1.17;;
45762;SDS011;37512;52.408;13.356;2024-03-29T08:47:44;3.80;;;0.90;;
45762;SDS011;37512;52.408;13.356;2024-03-29T08:51:45;3.88;;;1.00;;
45762;SDS011;37512;52.408;13.356;2024-03-29T08:55:46;1.98;;;0.80;;
45762;SDS011;37512;52.408;13.356;2024-03-29T08:59:48;1.83;;;0.70;;
45762;SDS011;37512;52.408;13.356;2024-03-29T09:03:49;4.47;;;1.70;;
45762;SDS011;37512;52.408;13.356;2024-03-29T09:07:50;3.45;;;0.98;;
45762;SDS011;37512;52.408;13.356;2024-03-29T09:11:50;4.53;;;1.08;;
45762;SDS011;37512;52.408;13.356;2024-03-29T09:15:51;3.08;;;0.80;;
45762;SDS011;37512;52.408;13.356;2024-03-29T09:19:52;1.83;;;0.77;;
45762;SDS011;37512;52.408;13.356;2024-03-29T09:23:53;1.67;;;0.82;;
45762;SDS011;37512;52.408;13.356;2024-03-29T09:27:54;1.33;;;0.80;;
45762;SDS011;37512;52.408;13.356;2024-03-29T09:31:54;1.77;;;0.90;;
45762;SDS011;37512;52.408;13.356;2024-03-29T09:35:55;3.22;;;0.80;;
45762;SDS011;37512;52.408;13.356;2024-03-29T09:39:56;1.88;;;0.75;;
45762;SDS011;37512;52.408;13.356;2024-03-29T09:43:57;2.20;;;1.13;;
45762;SDS011;37512;52.408;13.356;2024-03-29T09:48:05;1.40;;;0.80;;
45762;SDS011;37512;52.408;13.356;2024-03-29T09:52:07;1.05;;;0.70;;
45762;SDS011;37512;52.408;13.356;2024-03-29T09:56:09;3.70;;;0.90;;
45762;SDS011;37512;52.408;13.356;2024-03-29T10:00:10;2.00;;;0.90;;
45762;SDS011;37512;52.408;13.356;2024-03-29T10:04:11;2.20;;;0.80;;
45762;SDS011;37512;52.408;13.356;2024-03-29T10:08:13;1.27;;;0.77;;
45762;SDS011;37512;52.408;13.356;2024-03-29T10:12:14;1.88;;;0.95;;
45762;SDS011;37512;52.408;13.356;2024-03-29T10:16:20;1.08;;;0.75;;
45762;SDS011;37512;52.408;13.356;2024-03-29T10:20:24;2.20;;;0.93;;
45762;SDS011;37512;52.408;13.356;2024-03-29T10:24:27;1.67;;;0.90;;
45762;SDS011;37512;52.408;13.356;2024-03-29T10:28:31;3.45;;;0.98;;
45762;SDS011;37512;52.408;13.356;2024-03-29T10:32:39;2.30;;;1.10;;
45762;SDS011;37512;52.408;13.356;2024-03-29T10:36:43;2.60;;;1.15;;
45762;SDS011;37512;52.408;13.356;2024-03-29T10:40:43;3.63;;;1.00;;
45762;SDS011;37512;52.408;13.356;2024-03-29T10:44:49;2.72;;;0.90;;
45762;SDS011;37512;52.408;13.356;2024-03-29T10:48:50;1.73;;;0.80;;
45762;SDS011;37512;52.408;13.356;2024-03-29T10:52:51;4.03;;;0.98;;
45762;SDS011;37512;52.408;13.356;2024-03-29T10:57:02;2.28;;;1.13;;
45762;SDS011;37512;52.408;13.356;2024-03-29T11:01:08;4.15;;;1.45;;
45762;SDS011;37512;52.408;13.356;2024-03-29T11:05:12;2.15;;;1.02;;
45762;SDS011;37512;52.408;13.356;2024-03-29T11:09:15;2.88;;;0.80;;
45762;SDS011;37512;52.408;13.356;2024-03-29T11:17:36;1.00;;;0.73;;
45762;SDS011;37512;52.408;13.356;2024-03-29T11:21:37;1.30;;;0.73;;
45762;SDS011;37512;52.408;13.356;2024-03-29T11:25:40;1.42;;;0.80;;
45762;SDS011;37512;52.408;13.356;2024-03-29T11:29:41;2.65;;;0.95;;
45762;SDS011;37512;52.408;13.356;2024-03-29T11:37:54;2.15;;;1.00;;
45762;SDS011;37512;52.408;13.356;2024-03-29T11:41:56;4.22;;;1.40;;
45762;SDS011;37512;52.408;13.356;2024-03-29T11:46:02;1.08;;;0.82;;
45762;SDS011;37512;52.408;13.356;2024-03-29T11:50:06;1.60;;;1.00;;
45762;SDS011;37512;52.408;13.356;2024-03-29T11:54:08;1.90;;;1.10;;
45762;SDS011;37512;52.408;13.356;2024-03-29T11:58:09;1.23;;;0.77;;
45762;SDS011;37512;52.408;13.356;2024-03-29T12:02:10;0.85;;;0.63;;
45762;SDS011;37512;52.408;13.356;2024-03-29T12:06:14;2.50;;;1.08;;
45762;SDS011;37512;52.408;13.356;2024-03-29T12:10:15;1.35;;;0.90;;
45762;SDS011;37512;52.408;13.356;2024-03-29T12:14:16;2.00;;;0.98;;
45762;SDS011;37512;52.408;13.356;2024-03-29T12:18:19;4.97;;;1.70;;
45762;SDS011;37512;52.408;13.356;2024-03-29T12:22:20;1.77;;;0.82;;
45762;SDS011;37512;52.408;13.356;2024-03-29T12:26:21;2.20;;;1.13;;
45762;SDS011;37512;52.408;13.356;2024-03-29T12:30:22;1.55;;;0.70;;
45762;SDS011;37512;52.408;13.356;2024-03-29T12:34:23;2.45;;;0.68;;
45762;SDS011;37512;52.408;13.356;2024-03-29T12:38:24;1.55;;;0.65;;
45762;SDS011;37512;52.408;13.356;2024-03-29T12:42:25;0.95;;;0.60;;
45762;SDS011;37512;52.408;13.356;2024-03-29T12:46:26;1.35;;;0.75;;
45762;SDS011;37512;52.408;13.356;2024-03-29T12:50:31;1.63;;;0.80;;
45762;SDS011;37512;52.408;13.356;2024-03-29T12:54:33;2.90;;;0.90;;
45762;SDS011;37512;52.408;13.356;2024-03-29T12:58:33;3.83;;;0.73;;
45762;SDS011;37512;52.408;13.356;2024-03-29T13:02:35;3.72;;;0.90;;
45762;SDS011;37512;52.408;13.356;2024-03-29T13:06:36;1.45;;;0.60;;
45762;SDS011;37512;52.408;13.356;2024-03-29T13:10:40;6.45;;;0.82;;
45762;SDS011;37512;52.408;13.356;2024-03-29T13:14:41;2.22;;;0.80;;
45762;SDS011;37512;52.408;13.356;2024-03-29T13:18:42;1.45;;;0.77;;
45762;SDS011;37512;52.408;13.356;2024-03-29T13:22:43;1.33;;;0.82;;
45762;SDS011;37512;52.408;13.356;2024-03-29T13:26:46;1.55;;;0.82;;
45762;SDS011;37512;52.408;13.356;2024-03-29T13:30:46;2.70;;;0.80;;
45762;SDS011;37512;52.408;13.356;2024-03-29T13:34:48;2.30;;;0.90;;
45762;SDS011;37512;52.408;13.356;2024-03-29T13:38:49;4.25;;;1.10;;
45762;SDS011;37512;52.408;13.356;2024-03-29T13:42:49;4.85;;;0.88;;
45762;SDS011;37512;52.408;13.356;2024-03-29T13:46:50;2.40;;;0.85;;
45762;SDS011;37512;52.408;13.356;2024-03-29T13:50:51;1.98;;;0.93;;
45762;SDS011;37512;52.408;13.356;2024-03-29T13:54:52;3.15;;;0.73;;
45762;SDS011;37512;52.408;13.356;2024-03-29T13:58:53;4.30;;;0.90;;
45762;SDS011;37512;52.408;13.356;2024-03-29T14:02:56;2.60;;;0.88;;
45762;SDS011;37512;52.408;13.356;2024-03-29T14:06:57;1.63;;;0.85;;
45762;SDS011;37512;52.408;13.356;2024-03-29T14:10:57;1.05;;;0.80;;
45762;SDS011;37512;52.408;13.356;2024-03-29T14:14:58;1.33;;;0.73;;
45762;SDS011;37512;52.408;13.356;2024-03-29T14:19:01;2.80;;;0.70;;
45762;SDS011;37512;52.408;13.356;2024-03-29T14:23:01;1.50;;;0.70;;
45762;SDS011;37512;52.408;13.356;2024-03-29T14:27:06;1.73;;;0.60;;
45762;SDS011;37512;52.408;13.356;2024-03-29T14:31:07;6.68;;;0.73;;
45762;SDS011;37512;52.408;13.356;2024-03-29T14:35:08;1.60;;;0.80;;
45762;SDS011;37512;52.408;13.356;2024-03-29T14:39:11;1.13;;;0.65;;
45762;SDS011;37512;52.408;13.356;2024-03-29T14:43:16;1.00;;;0.63;;
45762;SDS011;37512;52.408;13.356;2024-03-29T14:47:16;1.88;;;0.70;;
45762;SDS011;37512;52.408;13.356;2024-03-29T14:51:17;2.22;;;1.08;;
45762;SDS011;37512;52.408;13.356;2024-03-29T14:55:20;1.92;;;0.75;;
45762;SDS011;37512;52.408;13.356;2024-03-29T14:59:23;1.70;;;1.10;;
45762;SDS011;37512;52.408;13.356;2024-03-29T15:03:25;2.75;;;0.75;;
45762;SDS011;37512;52.408;13.356;2024-03-29T15:07:27;1.77;;;0.75;;
45762;SDS011;37512;52.408;13.356;2024-03-29T15:11:28;1.42;;;0.57;;
45762;SDS011;37512;52.408;13.356;2024-03-29T15:15:28;2.35;;;1.23;;
45762;SDS011;37512;52.408;13.356;2024-03-29T15:19:29;1.98;;;0.52;;
45762;SDS011;37512;52.408;13.356;2024-03-29T15:23:30;1.50;;;0.68;;
45762;SDS011;37512;52.408;13.356;2024-03-29T15:27:31;2.30;;;1.00;;
45762;SDS011;37512;52.408;13.356;2024-03-29T15:31:50;1.98;;;0.80;;
45762;SDS011;37512;52.408;13.356;2024-03-29T15:35:51;1.02;;;0.60;;
45762;SDS011;37512;52.408;13.356;2024-03-29T15:39:52;0.43;;;0.40;;
45762;SDS011;37512;52.408;13.356;2024-03-29T15:43:52;2.15;;;0.60;;
45762;SDS011;37512;52.408;13.356;2024-03-29T15:47:55;0.85;;;0.60;;
45762;SDS011;37512;52.408;13.356;2024-03-29T15:51:55;1.23;;;0.80;;
45762;SDS011;37512;52.408;13.356;2024-03-29T15:55:56;1.58;;;0.80;;
45762;SDS011;37512;52.408;13.356;2024-03-29T15:59:58;1.17;;;0.70;;
45762;SDS011;37512;52.408;13.356;2024-03-29T16:03:59;1.05;;;0.55;;
45762;SDS011;37512;52.408;13.356;2024-03-29T16:08:00;0.73;;;0.60;;
45762;SDS011;37512;52.408;13.356;2024-03-29T16:12:00;3.05;;;0.90;;
45762;SDS011;37512;52.408;13.356;2024-03-29T16:16:02;1.00;;;0.80;;
45762;SDS011;37512;52.408;13.356;2024-03-29T16:20:04;0.70;;;0.57;;
45762;SDS011;37512;52.408;13.356;2024-03-29T16:24:05;1.05;;;0.60;;
45762;SDS011;37512;52.408;13.356;2024-03-29T16:28:06;2.05;;;1.05;;
45762;SDS011;37512;52.408;13.356;2024-03-29T16:32:11;3.10;;;1.08;;
45762;SDS011;37512;52.408;13.356;2024-03-29T16:36:12;3.55;;;0.90;;
45762;SDS011;37512;52.408;13.356;2024-03-29T16:40:13;1.23;;;0.90;;
45762;SDS011;37512;52.408;13.356;2024-03-29T16:44:13;1.35;;;0.80;;
45762;SDS011;37512;52.408;13.356;2024-03-29T16:48:14;1.95;;;1.10;;
45762;SDS011;37512;52.408;13.356;2024-03-29T16:52:15;1.30;;;0.80;;
45762;SDS011;37512;52.408;13.356;2024-03-29T16:56:15;2.63;;;1.00;;
45762;SDS011;37512;52.408;13.356;2024-03-29T17:00:16;5.43;;;1.00;;
45762;SDS011;37512;52.408;13.356;2024-03-29T17:04:17;0.88;;;0.75;;
45762;SDS011;37512;52.408;13.356;2024-03-29T17:08:17;1.38;;;0.80;;
45762;SDS011;37512;52.408;13.356;2024-03-29T17:12:19;1.40;;;0.85;;
45762;SDS011;37512;52.408;13.356;2024-03-29T17:16:20;1.90;;;0.82;;
45762;SDS011;37512;52.408;13.356;2024-03-29T17:20:21;1.52;;;0.70;;
45762;SDS011;37512;52.408;13.356;2024-03-29T17:24:21;0.88;;;0.63;;
45762;SDS011;37512;52.408;13.356;2024-03-29T17:28:22;2.47;;;1.00;;
45762;SDS011;37512;52.408;13.356;2024-03-29T17:32:23;1.50;;;0.95;;
45762;SDS011;37512;52.408;13.356;2024-03-29T17:36:23;1.33;;;0.90;;
45762;SDS011;37512;52.408;13.356;2024-03-29T17:40:28;1.40;;;0.70;;
45762;SDS011;37512;52.408;13.356;2024-03-29T17:44:30;1.70;;;0.90;;
45762;SDS011;37512;52.408;13.356;2024-03-29T17:48:30;0.60;;;0.60;;
45762;SDS011;37512;52.408;13.356;2024-03-29T17:52:35;2.38;;;0.90;;
45762;SDS011;37512;52.408;13.356;2024-03-29T17:56:35;3.33;;;1.10;;
45762;SDS011;37512;52.408;13.356;2024-03-29T18:00:36;2.22;;;1.17;;
45762;SDS011;37512;52.408;13.356;2024-03-29T18:04:36;1.52;;;0.90;;
45762;SDS011;37512;52.408;13.356;2024-03-29T18:08:37;1.40;;;0.88;;
45762;SDS011;37512;52.408;13.356;2024-03-29T18:12:39;2.45;;;1.00;;
45762;SDS011;37512;52.408;13.356;2024-03-29T18:16:40;1.55;;;0.90;;
45762;SDS011;37512;52.408;13.356;2024-03-29T18:20:41;6.10;;;3.20;;
45762;SDS011;37512;52.408;13.356;2024-03-29T18:24:43;1.95;;;1.23;;
45762;SDS011;37512;52.408;13.356;2024-03-29T18:28:43;3.92;;;2.20;;
45762;SDS011;37512;52.408;13.356;2024-03-29T18:32:44;5.38;;;1.00;;
45762;SDS011;37512;52.408;13.356;2024-03-29T18:36:44;1.70;;;1.08;;
45762;SDS011;37512;52.408;13.356;2024-03-29T18:40:47;1.05;;;0.82;;
45762;SDS011;37512;52.408;13.356;2024-03-29T18:44:49;2.05;;;1.27;;
45762;SDS011;37512;52.408;13.356;2024-03-29T18:48:52;5.88;;;2.75;;
45762;SDS011;37512;52.408;13.356;2024-03-29T18:52:52;5.72;;;3.47;;
45762;SDS011;37512;52.408;13.356;2024-03-29T18:56:53;3.00;;;1.83;;
45762;SDS011;37512;52.408;13.356;2024-03-29T19:00:54;2.90;;;1.88;;
45762;SDS011;37512;52.408;13.356;2024-03-29T19:04:55;3.13;;;1.38;;
45762;SDS011;37512;52.408;13.356;2024-03-29T19:08:55;1.63;;;1.00;;
45762;SDS011;37512;52.408;13.356;2024-03-29T19:12:56;1.88;;;1.15;;
45762;SDS011;37512;52.408;13.356;2024-03-29T19:16:56;1.77;;;1.10;;
45762;SDS011;37512;52.408;13.356;2024-03-29T19:20:57;1.65;;;1.05;;
45762;SDS011;37512;52.408;13.356;2024-03-29T19:24:58;3.22;;;1.90;;
45762;SDS011;37512;52.408;13.356;2024-03-29T19:28:58;2.90;;;1.58;;
45762;SDS011;37512;52.408;13.356;2024-03-29T19:32:59;3.92;;;2.22;;
45762;SDS011;37512;52.408;13.356;2024-03-29T19:37:00;4.00;;;1.90;;
45762;SDS011;37512;52.408;13.356;2024-03-29T19:41:01;4.85;;;1.52;;
45762;SDS011;37512;52.408;13.356;2024-03-29T19:45:03;1.63;;;1.20;;
45762;SDS011;37512;52.408;13.356;2024-03-29T19:49:04;3.25;;;2.10;;
45762;SDS011;37512;52.408;13.356;2024-03-29T19:53:06;2.90;;;1.90;;
45762;SDS011;37512;52.408;13.356;2024-03-29T19:57:06;3.67;;;1.80;;
45762;SDS011;37512;52.408;13.356;2024-03-29T20:01:10;3.80;;;2.30;;
45762;SDS011;37512;52.408;13.356;2024-03-29T20:05:11;2.80;;;1.88;;
45762;SDS011;37512;52.408;13.356;2024-03-29T20:09:12;3.00;;;1.60;;
45762;SDS011;37512;52.408;13.356;2024-03-29T20:13:13;4.72;;;2.55;;
45762;SDS011;37512;52.408;13.356;2024-03-29T20:17:13;3.90;;;2.00;;
45762;SDS011;37512;52.408;13.356;2024-03-29T20:21:14;4.07;;;2.33;;
45762;SDS011;37512;52.408;13.356;2024-03-29T20:25:15;2.70;;;2.13;;
45762;SDS011;37512;52.408;13.356;2024-03-29T20:29:15;4.07;;;1.98;;
45762;SDS011;37512;52.408;13.356;2024-03-29T20:33:16;2.35;;;1.75;;
45762;SDS011;37512;52.408;13.356;2024-03-29T20:37:17;3.63;;;2.10;;
45762;SDS011;37512;52.408;13.356;2024-03-29T20:41:19;3.50;;;2.00;;
45762;SDS011;37512;52.408;13.356;2024-03-29T20:45:20;2.83;;;1.70;;
45762;SDS011;37512;52.408;13.356;2024-03-29T20:49:21;3.90;;;2.28;;
45762;SDS011;37512;52.408;13.356;2024-03-29T20:53:21;3.05;;;1.75;;
45762;SDS011;37512;52.408;13.356;2024-03-29T20:57:22;3.08;;;2.03;;
45762;SDS011;37512;52.408;13.356;2024-03-29T21:01:22;5.15;;;2.30;;
45762;SDS011;37512;52.408;13.356;2024-03-29T21:05:42;5.35;;;2.55;;
45762;SDS011;37512;52.408;13.356;2024-03-29T21:09:44;3.05;;;1.85;;
45762;SDS011;37512;52.408;13.356;2024-03-29T21:13:45;4.03;;;2.20;;
45762;SDS011;37512;52.408;13.356;2024-03-29T21:17:47;10.55;;;2.90;;
45762;SDS011;37512;52.408;13.356;2024-03-29T21:21:48;4.65;;;2.10;;
45762;SDS011;37512;52.408;13.356;2024-03-29T21:25:48;3.20;;;2.08;;
45762;SDS011;37512;52.408;13.356;2024-03-29T21:29:50;2.22;;;1.92;;
45762;SDS011;37512;52.408;13.356;2024-03-29T21:33:50;2.83;;;1.95;;
45762;SDS011;37512;52.408;13.356;2024-03-29T21:37:51;4.20;;;1.90;;
45762;SDS011;37512;52.408;13.356;2024-03-29T21:41:52;5.85;;;2.88;;
45762;SDS011;37512;52.408;13.356;2024-03-29T21:45:53;3.13;;;2.13;;
45762;SDS011;37512;52.408;13.356;2024-03-29T21:49:53;4.80;;;2.25;;
45762;SDS011;37512;52.408;13.356;2024-03-29T21:53:54;3.45;;;2.20;;
45762;SDS011;37512;52.408;13.356;2024-03-29T21:57:55;5.03;;;2.22;;
45762;SDS011;37512;52.408;13.356;2024-03-29T22:01:55;4.57;;;2.50;;
45762;SDS011;37512;52.408;13.356;2024-03-29T22:05:56;4.35;;;2.60;;
45762;SDS011;37512;52.408;13.356;2024-03-29T22:09:57;3.70;;;2.70;;
45762;SDS011;37512;52.408;13.356;2024-03-29T22:13:57;3.83;;;2.78;;
45762;SDS011;37512;52.408;13.356;2024-03-29T22:17:58;4.35;;;2.88;;
45762;SDS011;37512;52.408;13.356;2024-03-29T22:21:59;4.82;;;3.00;;
45762;SDS011;37512;52.408;13.356;2024-03-29T22:25:59;4.00;;;3.05;;
45762;SDS011;37512;52.408;13.356;2024-03-29T22:30:00;3.55;;;2.55;;
45762;SDS011;37512;52.408;13.356;2024-03-29T22:34:00;6.05;;;3.30;;
45762;SDS011;37512;52.408;13.356;2024-03-29T22:38:01;5.18;;;2.92;;
45762;SDS011;37512;52.408;13.356;2024-03-29T22:42:02;4.28;;;2.88;;
45762;SDS011;37512;52.408;13.356;2024-03-29T22:46:02;4.10;;;2.95;;
45762;SDS011;37512;52.408;13.356;2024-03-29T22:50:03;4.88;;;3.30;;
45762;SDS011;37512;52.408;13.356;2024-03-29T22:54:06;3.50;;;2.63;;
45762;SDS011;37512;52.408;13.356;2024-03-29T22:58:07;4.30;;;3.33;;
45762;SDS011;37512;52.408;13.356;2024-03-29T23:02:07;3.35;;;2.83;;
45762;SDS011;37512;52.408;13.356;2024-03-29T23:06:08;3.95;;;2.50;;
45762;SDS011;37512;52.408;13.356;2024-03-29T23:10:09;5.38;;;2.85;;
45762;SDS011;37512;52.408;13.356;2024-03-29T23:14:10;4.10;;;2.78;;
45762;SDS011;37512;52.408;13.356;2024-03-29T23:18:10;3.53;;;2.53;;
45762;SDS011;37512;52.408;13.356;2024-03-29T23:22:11;5.82;;;3.22;;
45762;SDS011;37512;52.408;13.356;2024-03-29T23:26:11;4.30;;;2.72;;
45762;SDS011;37512;52.408;13.356;2024-03-29T23:30:17;5.10;;;3.13;;
45762;SDS011;37512;52.408;13.356;2024-03-29T23:34:18;6.05;;;3.20;;
45762;SDS011;37512;52.408;13.356;2024-03-29T23:38:18;5.65;;;3.47;;
45762;SDS011;37512;52.408;13.356;2024-03-29T23:42:19;4.97;;;3.53;;
45762;SDS011;37512;52.408;13.356;2024-03-29T23:46:20;5.40;;;3.58;;
45762;SDS011;37512;52.408;13.356;2024-03-29T23:50:21;5.15;;;2.90;;
45762;SDS011;37512;52.408;13.356;2024-03-29T23:54:22;4.35;;;2.85;;
45762;SDS011;37512;52.408;13.356;2024-03-29T23:58:24;4.60;;;3.35;;
